Time;durP1;ratioP1;P1;durP2;ratioP2;P2;SDS_P1;SDS_P2;PMS_P1;PMS_P2;Temp;Humidity;BMP_temperature;BMP_pressure;BME280_temperature;BME280_humidity;BME280_pressure;Samples;Min_cycle;Max_cycle;Signal;HPM_P1;HPM_P2
2023/09/11 00:01:37;;;;;;;0.10;0.10;;;;;;;10.55;95.31;100089.97;5047035;28;20052;-69
2023/09/11 00:04:03;;;;;;;0.10;0.10;;;;;;;10.54;95.14;100091.88;5061404;28;20076;-68
2023/09/11 00:06:30;;;;;;;0.10;0.10;;;;;;;10.53;95.53;100092.13;5053081;28;20052;-69
2023/09/11 00:09:00;;;;;;;0.10;0.10;;;;;;;10.53;95.53;100094.88;5045611;28;20136;-69
2023/09/11 00:11:26;;;;;;;0.10;0.10;;;;;;;10.53;95.39;100084.75;5051843;28;20040;-68
2023/09/11 00:13:52;;;;;;;0.10;0.10;;;;;;;10.48;95.75;100082.00;5063641;28;20142;-68
2023/09/11 00:16:18;;;;;;;0.08;0.08;;;;;;;10.50;95.91;100085.31;5047193;28;20049;-70
2023/09/11 00:18:46;;;;;;;0.10;0.10;;;;;;;10.47;96.01;100083.91;5045683;28;20535;-68
2023/09/11 00:21:12;;;;;;;0.10;0.10;;;;;;;10.48;96.09;100079.28;5045219;28;20068;-68
2023/09/11 00:23:38;;;;;;;0.10;0.10;;;;;;;10.47;96.06;100083.09;5055900;28;20159;-69
2023/09/11 00:26:05;;;;;;;0.10;0.10;;;;;;;10.45;95.97;100074.31;5063716;28;20051;-69
2023/09/11 00:28:31;;;;;;;0.10;0.10;;;;;;;10.48;96.06;100082.00;5064020;28;20450;-68
2023/09/11 00:30:59;;;;;;;0.10;0.10;;;;;;;10.44;95.80;100072.69;5066492;28;20043;-68
2023/09/11 00:33:25;;;;;;;0.10;0.10;;;;;;;10.43;95.97;100073.78;5043488;28;20052;-68
2023/09/11 00:35:53;;;;;;;0.10;0.10;;;;;;;10.39;96.24;100078.09;5044793;28;20048;-68
2023/09/11 00:38:19;;;;;;;0.00;0.00;;;;;;;10.36;96.52;100069.34;5061981;28;20060;-69
2023/09/11 00:40:45;;;;;;;0.10;0.10;;;;;;;10.38;96.68;100073.72;5067894;28;20552;-68
2023/09/11 00:43:11;;;;;;;0.10;0.10;;;;;;;10.39;96.69;100072.63;5067814;28;20044;-68
2023/09/11 00:45:37;;;;;;;0.10;0.10;;;;;;;10.39;96.59;100064.44;5050917;28;20052;-69
2023/09/11 00:48:04;;;;;;;0.10;0.10;;;;;;;10.39;96.71;100061.72;5050018;28;20147;-69
2023/09/11 00:50:32;;;;;;;0.10;0.10;;;;;;;10.37;96.98;100070.16;5066729;28;20513;-69
2023/09/11 00:52:59;;;;;;;0.00;0.00;;;;;;;10.35;97.04;100055.94;5067930;28;20068;-69
2023/09/11 00:55:25;;;;;;;;;;;;;;;10.40;97.14;100063.34;5069868;28;20062;-69
2023/09/11 00:57:51;;;;;;;0.00;0.00;;;;;;;10.39;96.68;100072.63;5066559;28;19924;-70
2023/09/11 01:00:19;;;;;;;0.10;0.10;;;;;;;10.36;96.77;100065.78;5064424;28;20087;-69
2023/09/11 01:02:45;;;;;;;;;;;;;;;10.35;96.41;100066.88;5051821;28;20044;-67
2023/09/11 01:05:11;;;;;;;0.10;0.10;;;;;;;10.33;96.18;100072.63;5048856;28;19934;-69
2023/09/11 01:07:37;;;;;;;0.10;0.10;;;;;;;10.29;96.39;100052.38;5067129;28;20087;-70
2023/09/11 01:10:06;;;;;;;0.00;0.00;;;;;;;9.93;96.25;100003.03;5066616;28;20510;-70
2023/09/11 01:12:35;;;;;;;0.10;0.10;;;;;;;10.34;96.41;100060.59;5070053;28;20051;-69
2023/09/11 01:15:04;;;;;;;0.10;0.10;;;;;;;10.42;96.24;100061.19;5068631;28;20044;-69
2023/09/11 01:17:38;;;;;;;0.10;0.10;;;;;;;10.54;95.96;100059.06;5037152;28;20060;-68
2023/09/11 01:20:30;;;;;;;0.10;0.10;;;;;;;10.67;95.06;100052.25;5049971;28;20118;-67
2023/09/11 01:23:16;;;;;;;0.10;0.10;;;;;;;10.82;94.18;100051.50;5052196;28;20060;-69
2023/09/11 01:26:03;;;;;;;0.10;0.10;;;;;;;10.89;93.41;100045.75;5051990;28;20091;-68
2023/09/11 01:29:02;;;;;;;0.00;0.00;;;;;;;10.89;93.31;100051.22;5046093;28;20147;-69
2023/09/11 01:31:31;;;;;;;0.10;0.10;;;;;;;10.92;92.78;100059.69;5046493;28;20536;-68
2023/09/11 01:34:00;;;;;;;0.10;0.10;;;;;;;10.90;92.59;100053.69;5045437;28;20052;-69
2023/09/11 01:36:27;;;;;;;0.10;0.10;;;;;;;10.95;92.49;100057.53;5031088;28;20052;-68
2023/09/11 01:38:54;;;;;;;0.00;0.00;;;;;;;11.00;92.01;100049.31;5064729;28;20052;-68
2023/09/11 01:41:25;;;;;;;0.10;0.10;;;;;;;11.01;91.61;100054.53;5033336;28;20061;-69
2023/09/11 01:43:54;;;;;;;0.00;0.00;;;;;;;10.99;91.21;100043.03;5046746;28;20051;-70
2023/09/11 01:46:21;;;;;;;0.00;0.00;;;;;;;10.99;91.07;100056.69;5049173;28;20036;-70
2023/09/11 01:48:48;;;;;;;;;;;;;;;11.00;91.47;100049.31;5045946;28;20044;-69
2023/09/11 01:51:14;;;;;;;0.00;0.00;;;;;;;11.00;90.98;100049.31;5056419;28;19935;-70
2023/09/11 01:53:41;;;;;;;0.10;0.10;;;;;;;10.99;91.00;100051.22;5067040;28;20057;-70
2023/09/11 01:56:08;;;;;;;0.10;0.10;;;;;;;11.01;90.92;100051.81;5066846;28;20054;-69
2023/09/11 01:58:34;;;;;;;0.00;0.00;;;;;;;11.03;91.20;100054.25;5051742;28;20045;-70
2023/09/11 02:01:00;;;;;;;0.10;0.10;;;;;;;11.08;90.83;100048.78;5062299;28;20832;-69
2023/09/11 02:03:28;;;;;;;0.10;0.10;;;;;;;11.04;91.00;100044.94;5063862;28;20072;-69
2023/09/11 02:05:55;;;;;;;0.10;0.10;;;;;;;10.99;91.24;100043.03;5040992;28;20287;-68
2023/09/11 02:08:22;;;;;;;0.10;0.10;;;;;;;10.99;91.42;100043.03;5063835;28;20539;-70
2023/09/11 02:10:48;;;;;;;0.10;0.10;;;;;;;10.97;91.38;100047.13;5029436;28;20060;-68
2023/09/11 02:13:15;;;;;;;0.00;0.00;;;;;;;10.89;91.63;100046.56;5049515;28;20473;-69
2023/09/11 02:15:41;;;;;;;;;;;;;;;10.84;92.13;100043.84;5063950;28;20071;-68
2023/09/11 02:18:08;;;;;;;0.10;0.10;;;;;;;10.80;92.07;100042.75;5068167;28;20422;-69
2023/09/11 02:20:36;;;;;;;0.10;0.10;;;;;;;10.82;92.05;100048.75;5039751;28;20059;-68
2023/09/11 02:23:03;;;;;;;0.10;0.10;;;;;;;10.75;92.26;100048.19;5053317;28;20064;-68
2023/09/11 02:25:29;;;;;;;0.10;0.10;;;;;;;10.66;92.62;100045.16;5063256;28;20141;-69
2023/09/11 02:27:55;;;;;;;0.08;0.08;;;;;;;10.60;93.19;100038.03;5046086;28;20385;-68
2023/09/11 02:30:21;;;;;;;0.00;0.00;;;;;;;10.56;93.44;100043.22;5063110;28;20131;-68
2023/09/11 02:32:47;;;;;;;0.10;0.10;;;;;;;10.53;93.57;100042.91;5067162;28;20147;-69
2023/09/11 02:35:14;;;;;;;0.10;0.10;;;;;;;10.49;93.75;100038.00;5057694;28;20059;-69
2023/09/11 02:37:42;;;;;;;0.10;0.10;;;;;;;10.41;93.90;100033.06;5045544;28;20076;-70
2023/09/11 02:40:09;;;;;;;0.10;0.10;;;;;;;10.40;94.09;100034.13;5028158;28;20045;-70
2023/09/11 02:42:35;;;;;;;0.10;0.10;;;;;;;10.31;94.33;100032.97;5059853;28;20046;-69
2023/09/11 02:45:02;;;;;;;0.03;0.03;;;;;;;10.34;94.56;100041.47;5044778;28;20106;-68
2023/09/11 02:47:30;;;;;;;0.10;0.10;;;;;;;10.32;94.87;100040.91;5050399;28;20071;-70
2023/09/11 02:49:56;;;;;;;0.10;0.10;;;;;;;10.28;95.06;100038.97;5050876;28;20040;-70
2023/09/11 02:52:22;;;;;;;0.10;0.10;;;;;;;10.26;95.45;100038.44;5065594;28;20048;-69
2023/09/11 02:54:50;;;;;;;0.10;0.10;;;;;;;10.25;95.51;100032.13;5065196;28;20058;-69
2023/09/11 02:57:16;;;;;;;0.10;0.10;;;;;;;10.24;95.56;100035.97;5048261;28;20049;-70
2023/09/11 02:59:42;;;;;;;0.10;0.10;;;;;;;10.24;95.56;100041.41;5044187;28;20048;-70
2023/09/11 03:02:09;;;;;;;0.08;0.08;;;;;;;10.28;95.61;100033.53;5045706;28;20443;-70
2023/09/11 03:04:36;;;;;;;0.10;0.10;;;;;;;10.27;95.49;100034.59;5058446;28;20083;-70
2023/09/11 03:07:02;;;;;;;0.10;0.10;;;;;;;10.29;95.80;100035.97;5044402;28;20485;-70
2023/09/11 03:09:28;;;;;;;0.00;0.00;;;;;;;10.29;95.41;100029.69;5044021;28;20049;-69
2023/09/11 03:11:57;;;;;;;0.10;0.10;;;;;;;10.27;95.43;100040.06;5038755;28;20303;-69
2023/09/11 03:14:23;;;;;;;;;;;;;;;10.26;95.52;100041.97;5048524;28;20041;-69
2023/09/11 03:16:51;;;;;;;0.10;0.10;;;;;;;10.27;94.98;100037.34;5053089;28;19925;-69
2023/09/11 03:19:17;;;;;;;0.10;0.10;;;;;;;10.24;94.83;100035.97;5046898;28;20045;-69
2023/09/11 03:21:43;;;;;;;0.10;0.10;;;;;;;10.27;94.80;100040.06;5040311;28;20068;-69
2023/09/11 03:24:10;;;;;;;0.00;0.00;;;;;;;10.29;95.02;100040.63;5056551;28;20135;-70
2023/09/11 03:26:36;;;;;;;0.10;0.10;;;;;;;10.28;94.66;100039.78;5059229;28;20102;-69
2023/09/11 03:29:04;;;;;;;0.10;0.10;;;;;;;10.26;94.90;100041.97;5052123;28;20036;-70
2023/09/11 03:31:34;;;;;;;0.10;0.10;;;;;;;10.26;94.92;100043.91;5050718;28;20049;-70
2023/09/11 03:34:00;;;;;;;0.10;0.10;;;;;;;10.25;95.12;100039.53;5048873;28;20056;-70
2023/09/11 03:36:27;;;;;;;0.10;0.10;;;;;;;10.22;94.98;100046.34;5050813;28;20546;-69
2023/09/11 03:38:53;;;;;;;0.10;0.10;;;;;;;10.21;95.22;100045.50;5059302;28;20049;-69
2023/09/11 03:41:19;;;;;;;0.10;0.10;;;;;;;10.23;95.34;100042.50;5054624;28;20076;-70
2023/09/11 03:43:45;;;;;;;0.10;0.10;;;;;;;10.20;95.19;100029.38;5043622;28;20068;-69
2023/09/11 03:46:14;;;;;;;0.10;0.10;;;;;;;10.25;95.45;100045.78;5046275;28;20052;-70
2023/09/11 03:48:43;;;;;;;0.10;0.10;;;;;;;10.30;95.50;100042.28;5050757;28;20049;-69
2023/09/11 03:51:10;;;;;;;0.10;0.10;;;;;;;10.42;94.98;100044.78;5060117;28;20606;-69
2023/09/11 03:53:42;;;;;;;0.10;0.10;;;;;;;10.53;94.71;100049.22;5051699;28;20132;-67
2023/09/11 03:56:10;;;;;;;0.10;0.10;;;;;;;10.66;94.06;100050.63;5046130;28;20060;-68
2023/09/11 03:58:36;;;;;;;0.10;0.10;;;;;;;10.88;93.04;100047.66;5042547;28;20423;-69
2023/09/11 04:01:03;;;;;;;0.13;0.13;;;;;;;11.02;92.07;100030.72;5063662;28;20076;-69
2023/09/11 04:03:31;;;;;;;0.10;0.10;;;;;;;11.31;91.25;100050.16;5039049;28;20037;-69
2023/09/11 04:05:57;;;;;;;0.10;0.10;;;;;;;11.46;90.02;100054.00;5030381;28;20060;-69
2023/09/11 04:08:23;;;;;;;0.10;0.10;;;;;;;11.55;89.31;100054.25;5028485;28;20076;-69
2023/09/11 04:10:50;;;;;;;0.10;0.10;;;;;;;11.61;88.68;100043.03;5042470;28;20052;-69
2023/09/11 04:13:16;;;;;;;0.10;0.10;;;;;;;11.73;88.08;100047.41;5048589;28;20072;-69
2023/09/11 04:15:43;;;;;;;0.10;0.10;;;;;;;11.84;87.00;100046.28;5060635;28;20052;-71
2023/09/11 04:18:10;;;;;;;0.20;0.20;;;;;;;11.95;86.43;100051.75;5082246;28;20048;-71
2023/09/11 04:20:37;;;;;;;0.10;0.10;;;;;;;11.95;86.04;100049.00;5083746;28;20147;-69
2023/09/11 04:23:07;;;;;;;0.10;0.10;;;;;;;11.84;85.88;100027.13;5053221;28;20090;-69
2023/09/11 04:25:34;;;;;;;0.10;0.10;;;;;;;12.08;85.76;100047.63;5039210;28;20064;-71
2023/09/11 04:28:01;;;;;;;0.10;0.10;;;;;;;12.15;85.40;100050.88;5058228;28;20135;-68
2023/09/11 04:30:27;;;;;;;0.10;0.10;;;;;;;12.13;85.30;100044.88;5042112;28;20048;-69
2023/09/11 04:32:54;;;;;;;0.10;0.10;;;;;;;12.04;85.42;100048.19;5045251;28;20045;-69
2023/09/11 04:35:20;;;;;;;0.10;0.10;;;;;;;12.03;85.38;100049.28;5055125;28;20294;-69
2023/09/11 04:37:48;;;;;;;0.10;0.10;;;;;;;12.08;84.81;100050.38;5043823;28;20315;-71
2023/09/11 04:40:15;;;;;;;0.20;0.20;;;;;;;12.10;84.70;100039.94;5061240;28;20041;-71
2023/09/11 04:42:43;;;;;;;0.20;0.20;;;;;;;12.19;84.08;100046.50;5047123;28;20045;-70
2023/09/11 04:45:10;;;;;;;0.10;0.10;;;;;;;12.27;83.82;100045.91;5051446;28;20132;-70
2023/09/11 04:47:37;;;;;;;0.17;0.17;;;;;;;12.34;83.23;100053.84;5060710;28;20522;-71
2023/09/11 04:50:04;;;;;;;0.10;0.10;;;;;;;12.36;83.12;100051.63;5060995;28;20044;-70
2023/09/11 04:52:31;;;;;;;0.10;0.10;;;;;;;12.40;82.97;100049.16;5057738;28;20044;-70
2023/09/11 04:54:59;;;;;;;0.20;0.20;;;;;;;12.58;82.34;100054.00;5069351;28;20045;-69
2023/09/11 04:57:25;;;;;;;0.20;0.20;;;;;;;12.71;82.07;100049.00;5066728;28;20143;-70
2023/09/11 04:59:51;;;;;;;0.10;0.10;;;;;;;12.86;81.28;100048.91;5060344;28;20056;-70
2023/09/11 05:02:17;;;;;;;0.10;0.10;;;;;;;12.93;80.75;100051.34;5056296;28;20057;-70
2023/09/11 05:04:47;;;;;;;0.10;0.10;;;;;;;13.01;80.93;100055.41;5043286;28;20123;-70
2023/09/11 05:07:13;;;;;;;0.10;0.10;;;;;;;13.06;80.16;100038.88;5048517;28;20095;-71
2023/09/11 05:09:39;;;;;;;0.10;0.10;;;;;;;13.15;79.80;100044.59;5047425;28;20271;-71
2023/09/11 05:12:08;;;;;;;0.20;0.20;;;;;;;13.20;79.61;100044.56;5036666;28;20056;-71
2023/09/11 05:14:34;;;;;;;0.20;0.20;;;;;;;13.40;79.00;100045.50;5044982;28;20037;-70
2023/09/11 05:17:00;;;;;;;0.20;0.20;;;;;;;13.62;78.04;100042.31;5033425;28;20043;-70
2023/09/11 05:19:26;;;;;;;0.10;0.10;;;;;;;13.74;77.31;100037.25;5051112;28;20450;-70
2023/09/11 05:21:53;;;;;;;0.20;0.20;;;;;;;13.62;77.39;100034.06;5044784;28;20476;-71
2023/09/11 05:24:19;;;;;;;0.20;0.20;;;;;;;13.58;77.87;100038.47;5052399;28;20406;-70
2023/09/11 05:26:45;;;;;;;0.20;0.20;;;;;;;13.53;77.72;100030.31;5061375;28;20071;-71
2023/09/11 05:29:12;;;;;;;0.10;0.10;;;;;;;13.60;77.57;100034.34;5056271;28;20037;-71
2023/09/11 05:31:38;;;;;;;;;;;;;;;13.64;77.78;100040.09;5044723;28;20065;-68
2023/09/11 05:34:04;;;;;;;0.10;0.10;;;;;;;13.61;77.22;100035.97;5051478;28;20437;-70
2023/09/11 05:36:31;;;;;;;0.20;0.20;;;;;;;13.72;77.38;100046.88;5054048;28;20417;-71
2023/09/11 05:38:57;;;;;;;0.20;0.20;;;;;;;13.87;76.38;100030.25;5054915;28;20483;-70
2023/09/11 05:41:25;;;;;;;0.20;0.20;;;;;;;14.08;76.08;100023.69;5058391;28;20053;-71
2023/09/11 05:43:51;;;;;;;0.20;0.20;;;;;;;14.30;75.48;100025.91;5052775;28;20530;-69
2023/09/11 05:46:19;;;;;;;0.20;0.20;;;;;;;14.32;74.73;99993.44;5048571;28;20048;-70
2023/09/11 05:48:45;;;;;;;0.20;0.20;;;;;;;14.66;74.28;100019.09;5044188;28;20041;-69
2023/09/11 05:51:13;;;;;;;0.20;0.20;;;;;;;14.84;73.58;100017.50;5065207;28;20048;-70
2023/09/11 05:53:40;;;;;;;0.20;0.20;;;;;;;14.93;72.89;100009.38;5062258;28;20059;-70
2023/09/11 05:56:06;;;;;;;0.20;0.20;;;;;;;15.02;72.47;100013.91;5060208;28;20068;-70
2023/09/11 05:58:32;;;;;;;0.20;0.20;;;;;;;15.16;71.83;100010.38;5063163;28;20165;-71
2023/09/11 06:00:58;;;;;;;0.20;0.20;;;;;;;15.30;71.48;100014.00;5051132;28;20048;-70
2023/09/11 06:03:26;;;;;;;0.20;0.20;;;;;;;15.49;71.11;100013.13;5067833;28;20054;-70
2023/09/11 06:05:52;;;;;;;0.20;0.20;;;;;;;15.65;70.23;100012.84;5058066;28;20099;-71
2023/09/11 06:08:19;;;;;;;0.20;0.20;;;;;;;15.83;69.59;100013.91;5058471;28;20044;-71
2023/09/11 06:10:45;;;;;;;0.20;0.20;;;;;;;15.89;68.57;100007.19;5058206;28;20040;-70
2023/09/11 06:13:12;;;;;;;0.20;0.20;;;;;;;15.83;68.38;100011.94;5053503;28;20051;-69
2023/09/11 06:15:38;;;;;;;0.30;0.30;;;;;;;15.79;68.85;100013.69;5061683;28;20052;-69
2023/09/11 06:18:05;;;;;;;0.30;0.30;;;;;;;15.92;68.61;100009.34;5055939;28;20577;-69
2023/09/11 06:20:34;;;;;;;0.30;0.30;;;;;;;15.94;68.13;100001.59;5058236;28;20080;-69
2023/09/11 06:23:01;;;;;;;0.20;0.20;;;;;;;16.12;68.00;100013.63;5065181;28;20067;-69
2023/09/11 06:25:27;;;;;;;0.20;0.20;;;;;;;16.21;67.16;100002.69;5066532;28;20418;-69
2023/09/11 06:27:53;;;;;;;0.20;0.20;;;;;;;16.28;67.15;100008.63;5064299;28;20032;-69
2023/09/11 06:30:19;;;;;;;0.30;0.30;;;;;;;16.27;67.00;100007.00;5069730;28;20511;-69
2023/09/11 06:32:45;;;;;;;0.20;0.20;;;;;;;16.26;67.29;100013.63;5067670;28;20068;-69
2023/09/11 06:35:12;;;;;;;0.20;0.20;;;;;;;16.32;66.50;100008.00;5063079;28;20117;-69
2023/09/11 06:37:40;;;;;;;0.28;0.28;;;;;;;16.40;66.38;100010.03;5046014;28;20053;-69
2023/09/11 06:40:07;;;;;;;0.20;0.20;;;;;;;16.44;65.61;100005.53;5041707;28;20132;-69
2023/09/11 06:42:34;;;;;;;0.30;0.30;;;;;;;16.40;66.44;100008.09;5068165;28;20063;-69
2023/09/11 06:45:00;;;;;;;0.30;0.30;;;;;;;16.52;66.13;100006.75;5067953;28;20098;-69
2023/09/11 06:47:30;;;;;;;0.20;0.20;;;;;;;16.79;65.59;100011.38;5062257;28;20056;-69
2023/09/11 06:49:56;;;;;;;0.20;0.20;;;;;;;17.02;64.69;100008.69;5068030;28;20045;-70
2023/09/11 06:52:22;;;;;;;0.30;0.30;;;;;;;17.09;64.73;100009.03;5054637;28;20051;-69
2023/09/11 06:54:50;;;;;;;0.30;0.30;;;;;;;17.15;64.02;100013.28;5055226;28;20040;-69
2023/09/11 06:57:16;;;;;;;;;;;;;;;17.10;64.74;100015.41;5053858;28;20045;-69
2023/09/11 06:59:42;;;;;;;0.30;0.30;;;;;;;17.26;63.58;100013.88;5047771;28;19960;-69
2023/09/11 07:02:08;;;;;;;0.30;0.30;;;;;;;17.48;62.90;100011.38;5044351;28;20144;-69
2023/09/11 07:04:35;;;;;;;0.30;0.30;;;;;;;17.76;62.20;100013.97;5048980;28;20041;-69
2023/09/11 07:07:01;;;;;;;0.20;0.20;;;;;;;17.93;61.49;100010.47;5057153;28;20664;-69
2023/09/11 07:09:27;;;;;;;0.20;0.20;;;;;;;18.02;61.37;100024.34;5064875;28;20045;-70
2023/09/11 07:11:56;;;;;;;0.30;0.30;;;;;;;18.05;60.74;100012.66;5067339;28;20041;-69
2023/09/11 07:14:23;;;;;;;0.30;0.30;;;;;;;18.32;60.43;100011.59;5065803;28;20053;-71
2023/09/11 07:16:50;;;;;;;0.30;0.30;;;;;;;18.48;59.25;100011.97;5059817;28;20106;-70
2023/09/11 07:19:16;;;;;;;0.30;0.30;;;;;;;18.58;59.21;100013.59;5067341;28;20091;-70
2023/09/11 07:21:44;;;;;;;0.30;0.30;;;;;;;18.68;58.77;100010.53;5067982;28;20051;-70
2023/09/11 07:24:11;;;;;;;0.40;0.40;;;;;;;18.67;58.20;99991.47;5054131;28;20099;-70
2023/09/11 07:26:37;;;;;;;0.30;0.30;;;;;;;18.77;57.97;100005.00;5045969;28;20386;-70
2023/09/11 07:29:05;;;;;;;0.30;0.30;;;;;;;18.62;58.24;100000.72;5046689;28;20049;-70
2023/09/11 07:31:32;;;;;;;0.30;0.30;;;;;;;18.52;59.05;100010.16;5046168;28;20080;-70
2023/09/11 07:33:59;;;;;;;0.30;0.30;;;;;;;18.69;58.78;100005.78;5057278;28;20076;-70
2023/09/11 07:36:26;;;;;;;0.40;0.40;;;;;;;19.03;57.69;100006.94;5062991;28;20523;-71
2023/09/11 07:38:52;;;;;;;0.30;0.30;;;;;;;19.35;57.03;100013.09;5058338;28;20044;-70
2023/09/11 07:41:20;;;;;;;0.30;0.30;;;;;;;19.63;55.73;100012.72;5065156;28;20049;-71
2023/09/11 07:43:49;;;;;;;0.30;0.30;;;;;;;19.86;55.40;100003.34;5062937;28;20040;-70
2023/09/11 07:46:19;;;;;;;0.30;0.30;;;;;;;20.12;54.42;100006.84;5047149;28;20052;-71
2023/09/11 07:48:45;;;;;;;0.30;0.30;;;;;;;20.26;54.30;100012.13;5066337;28;20044;-70
2023/09/11 07:51:12;;;;;;;0.30;0.30;;;;;;;20.34;53.73;100004.13;5064604;28;20072;-70
2023/09/11 07:53:38;;;;;;;0.30;0.30;;;;;;;20.48;53.69;100014.94;5049704;28;20049;-69
2023/09/11 07:56:06;;;;;;;0.30;0.30;;;;;;;20.59;52.64;100010.63;5046854;28;20151;-68
2023/09/11 07:58:32;;;;;;;0.30;0.30;;;;;;;20.71;52.32;100009.09;5049433;28;20506;-69
2023/09/11 08:00:58;;;;;;;0.30;0.30;;;;;;;20.83;52.38;100006.38;5062881;28;20526;-69
2023/09/11 08:03:26;;;;;;;0.30;0.30;;;;;;;21.15;51.67;100014.31;5066577;28;20131;-69
2023/09/11 08:05:53;;;;;;;0.30;0.30;;;;;;;21.47;50.90;100017.41;5066851;28;20091;-70
2023/09/11 08:08:19;;;;;;;;;;;;;;;21.68;50.49;100011.81;5062154;28;20135;-69
2023/09/11 08:10:45;;;;;;;0.35;0.35;;;;;;;21.76;49.41;99998.97;5066963;28;19978;-70
2023/09/11 08:13:12;;;;;;;0.40;0.40;;;;;;;21.98;48.77;100011.63;5066132;28;20078;-70
2023/09/11 08:15:38;;;;;;;0.30;0.30;;;;;;;21.99;48.60;100006.84;5040770;28;20317;-70
2023/09/11 08:18:04;;;;;;;0.30;0.30;;;;;;;22.18;48.50;100004.31;5047509;28;20135;-71
2023/09/11 08:20:32;;;;;;;0.30;0.30;;;;;;;22.52;47.04;100007.78;5046141;28;20102;-69
2023/09/11 08:22:58;;;;;;;0.40;0.40;;;;;;;22.73;47.06;100006.00;5059026;28;20040;-69
2023/09/11 08:25:25;;;;;;;0.40;0.40;;;;;;;23.04;46.03;100004.50;5062473;28;20049;-69
2023/09/11 08:27:52;;;;;;;0.40;0.40;;;;;;;23.26;45.13;99999.50;5062333;28;20044;-69
2023/09/11 08:30:18;;;;;;;0.40;0.40;;;;;;;23.46;45.06;100000.47;5065164;28;20075;-70
2023/09/11 08:32:45;;;;;;;0.30;0.30;;;;;;;23.73;44.28;100000.78;5043812;28;20483;-73
2023/09/11 08:35:11;;;;;;;0.30;0.30;;;;;;;23.70;44.23;99999.50;5057430;28;20132;-70
2023/09/11 08:37:39;;;;;;;0.40;0.40;;;;;;;23.65;44.31;99994.19;5056166;28;20519;-70
2023/09/11 08:40:06;;;;;;;0.40;0.40;;;;;;;23.70;44.30;99990.31;5066023;28;20048;-70
2023/09/11 08:42:33;;;;;;;0.40;0.40;;;;;;;23.98;44.22;100000.56;5064844;28;20048;-71
2023/09/11 08:44:59;;;;;;;0.30;0.30;;;;;;;23.86;43.51;99984.72;5048186;28;20216;-70
2023/09/11 08:47:30;;;;;;;0.30;0.30;;;;;;;23.01;45.21;99983.69;5043186;28;20428;-69
2023/09/11 08:50:02;;;;;;;0.30;0.30;;;;;;;21.94;47.82;99999.56;5052047;28;20041;-71
2023/09/11 08:52:35;;;;;;;0.30;0.30;;;;;;;20.93;50.19;99969.06;5047622;28;20517;-67
2023/09/11 08:55:08;;;;;;;0.30;0.30;;;;;;;21.03;50.65;99982.50;5060141;28;20048;-69
2023/09/11 08:57:38;;;;;;;0.40;0.40;;;;;;;21.96;48.77;99984.13;5067703;28;20056;-70
2023/09/11 09:00:09;;;;;;;0.40;0.40;;;;;;;22.99;46.52;99979.63;5069460;28;20135;-69
2023/09/11 09:02:36;;;;;;;0.40;0.40;;;;;;;23.65;44.97;99980.25;5069496;28;20057;-70
2023/09/11 09:05:03;;;;;;;;;;;;;;;24.07;44.15;99981.69;5064825;28;20076;-69
2023/09/11 09:07:31;;;;;;;0.40;0.40;;;;;;;24.28;43.38;99975.78;5069111;28;19924;-70
2023/09/11 09:09:57;;;;;;;0.40;0.40;;;;;;;24.58;42.73;99980.03;5071615;28;20052;-70
2023/09/11 09:12:26;;;;;;;0.40;0.40;;;;;;;24.60;42.18;99977.66;5067407;28;20045;-69
2023/09/11 09:14:53;;;;;;;0.40;0.40;;;;;;;24.48;42.50;99970.22;5062335;28;20073;-70
2023/09/11 09:17:19;;;;;;;0.50;0.50;;;;;;;24.50;41.48;99974.25;5048117;28;20052;-70
2023/09/11 09:19:45;;;;;;;0.47;0.47;;;;;;;24.68;41.24;99975.84;5051238;28;20049;-70
2023/09/11 09:22:13;;;;;;;0.50;0.50;;;;;;;24.81;41.26;99968.13;5047387;28;20052;-71
2023/09/11 09:24:48;;;;;;;0.30;0.30;;;;;;;24.33;41.22;99969.09;5060604;28;20049;-70
2023/09/11 09:27:15;;;;;;;0.50;0.50;;;;;;;23.45;42.49;99968.97;5050607;28;20106;-70
2023/09/11 09:29:43;;;;;;;0.40;0.40;;;;;;;23.28;43.49;99967.34;5056440;28;20053;-70
2023/09/11 09:32:10;;;;;;;0.50;0.50;;;;;;;23.51;42.76;99967.53;5051591;28;20041;-70
2023/09/11 09:34:42;;;;;;;0.55;0.55;;;;;;;23.81;42.41;99965.47;5046788;28;20134;-72
2023/09/11 09:37:15;;;;;;;0.50;0.50;;;;;;;24.23;41.00;99966.88;5044336;28;20439;-71
2023/09/11 09:39:42;;;;;;;0.50;0.50;;;;;;;24.74;40.34;99963.16;5048810;28;20052;-70
2023/09/11 09:42:10;;;;;;;0.85;0.60;;;;;;;25.34;39.33;99964.75;5067363;28;20089;-71
2023/09/11 09:44:38;;;;;;;0.57;0.57;;;;;;;25.67;37.45;99963.34;5066884;28;20461;-70
2023/09/11 09:47:07;;;;;;;0.60;0.60;;;;;;;25.91;36.87;99962.19;5057056;28;20517;-70
2023/09/11 09:49:43;;;;;;;0.60;0.60;;;;;;;26.75;35.43;99966.97;5050767;28;20056;-70
2023/09/11 09:52:10;;;;;;;0.60;0.60;;;;;;;27.08;34.08;99952.53;5046688;28;20393;-70
2023/09/11 09:54:44;;;;;;;0.60;0.60;;;;;;;27.30;33.07;99953.56;5046151;28;20049;-71
2023/09/11 09:57:12;;;;;;;0.60;0.60;;;;;;;27.07;33.74;99950.91;5051363;28;20083;-71
2023/09/11 09:59:39;;;;;;;0.60;0.60;;;;;;;27.62;32.39;99960.69;5066816;28;20516;-71
2023/09/11 10:02:10;;;;;;;0.60;0.60;;;;;;;27.88;31.83;99945.66;5046153;28;20071;-71
2023/09/11 10:04:38;;;;;;;0.70;0.70;;;;;;;28.69;31.55;99945.72;5033732;28;20061;-72
2023/09/11 10:07:07;;;;;;;0.70;0.70;;;;;;;29.16;30.92;99947.88;5025459;28;20060;-70
2023/09/11 10:09:36;;;;;;;0.60;0.60;;;;;;;29.23;31.03;99945.09;5062797;28;20093;-70
2023/09/11 10:12:04;;;;;;;0.60;0.60;;;;;;;29.34;29.79;99947.09;5068523;28;20044;-71
2023/09/11 10:14:31;;;;;;;0.50;0.50;;;;;;;29.15;30.17;99949.09;5066600;28;20098;-70
2023/09/11 10:17:01;;;;;;;0.40;0.40;;;;;;;27.97;31.06;99925.66;5046586;28;20067;-71
2023/09/11 10:19:30;;;;;;;0.40;0.40;;;;;;;26.52;33.66;99952.22;5047314;28;20048;-70
2023/09/11 10:21:58;;;;;;;0.30;0.30;;;;;;;25.34;35.65;99948.78;5047811;28;20063;-70
2023/09/11 10:24:24;;;;;;;0.40;0.40;;;;;;;24.68;36.94;99948.72;5048349;28;20056;-70
2023/09/11 10:26:55;;;;;;;0.40;0.40;;;;;;;24.40;37.44;99952.50;5062936;28;20044;-70
2023/09/11 10:29:34;;;;;;;0.30;0.30;;;;;;;23.85;38.63;99936.47;5062065;28;20464;-69
2023/09/11 10:32:05;;;;;;;0.30;0.30;;;;;;;23.37;40.20;99944.84;5056713;28;20448;-69
2023/09/11 10:34:36;;;;;;;0.30;0.30;;;;;;;22.95;41.06;99946.91;5059502;28;20063;-70
2023/09/11 10:37:04;;;;;;;0.60;0.60;;;;;;;23.89;39.51;99945.75;5062945;28;20515;-69
2023/09/11 10:39:33;;;;;;;0.60;0.60;;;;;;;25.62;36.80;99941.28;5057201;28;20040;-70
2023/09/11 10:42:00;;;;;;;0.60;0.60;;;;;;;27.03;33.79;99937.66;5066837;28;20061;-71
2023/09/11 10:44:29;;;;;;;0.60;0.60;;;;;;;27.58;33.13;99933.38;5064371;28;20051;-71
2023/09/11 10:47:02;;;;;;;0.70;0.70;;;;;;;28.47;31.63;99932.78;5042677;28;20103;-70
2023/09/11 10:49:35;;;;;;;0.60;0.60;;;;;;;29.10;30.35;99935.44;5046305;28;20052;-69
2023/09/11 10:52:04;;;;;;;0.80;0.80;;;;;;;29.64;29.85;99945.94;5047327;28;20060;-70
2023/09/11 10:54:31;;;;;;;0.70;0.70;;;;;;;29.90;29.06;99941.94;5030098;28;20045;-70
2023/09/11 10:56:57;;;;;;;0.70;0.70;;;;;;;30.13;28.79;99940.69;5055117;28;20037;-69
2023/09/11 10:59:24;;;;;;;0.70;0.70;;;;;;;30.17;28.88;99946.34;5052509;28;20152;-67
2023/09/11 11:01:50;;;;;;;0.40;0.40;;;;;;;29.76;29.29;99934.28;5067575;28;20048;-69
2023/09/11 11:04:17;;;;;;;0.40;0.40;;;;;;;28.50;30.64;99934.78;5068991;28;20082;-71
2023/09/11 11:06:48;;;;;;;0.90;0.90;;;;;;;27.88;31.58;99932.41;5069290;28;20167;-69
2023/09/11 11:09:30;;;;;;;0.40;0.40;;;;;;;28.09;31.14;99936.53;5066996;28;20051;-70
2023/09/11 11:11:58;;;;;;;0.30;0.30;;;;;;;27.40;32.47;99933.22;5060982;28;20057;-69
2023/09/11 11:14:24;;;;;;;0.40;0.40;;;;;;;26.47;33.97;99928.97;5067233;28;20334;-71
2023/09/11 11:16:56;;;;;;;0.40;0.40;;;;;;;25.43;35.03;99942.13;5066275;28;20045;-70
2023/09/11 11:19:26;;;;;;;0.30;0.30;;;;;;;24.53;36.44;99939.19;5045168;28;20045;-69
2023/09/11 11:21:54;;;;;;;0.60;0.60;;;;;;;24.36;37.83;99941.25;5045368;28;20485;-70
2023/09/11 11:24:24;;;;;;;0.60;0.60;;;;;;;25.19;36.54;99944.13;5047539;28;20053;-70
2023/09/11 11:26:54;;;;;;;0.50;0.50;;;;;;;25.59;35.16;99939.25;5057644;28;20040;-69
2023/09/11 11:29:23;;;;;;;0.40;0.40;;;;;;;24.81;36.94;99929.81;5054355;28;20040;-70
2023/09/11 11:31:55;;;;;;;0.30;0.30;;;;;;;23.90;38.54;99946.53;5055561;28;20075;-71